createdAt,value
2022-10-06T00:00:43.390Z,15.70
2022-10-06T00:03:14.154Z,15.71
2022-10-06T00:05:45.366Z,15.77
2022-10-06T00:08:15.904Z,15.82
2022-10-06T00:10:46.260Z,15.87
2022-10-06T00:13:16.612Z,15.92
2022-10-06T00:15:47.146Z,15.95
2022-10-06T00:18:17.681Z,15.94
2022-10-06T00:20:55.057Z,15.91
2022-10-06T00:23:26.064Z,15.83
2022-10-06T00:25:58.607Z,15.77
2022-10-06T00:28:29.596Z,15.69
2022-10-06T00:31:05.170Z,15.61
2022-10-06T00:33:37.266Z,15.58
2022-10-06T00:36:12.835Z,15.58
2022-10-06T00:38:43.250Z,15.60
2022-10-06T00:41:17.761Z,15.61
2022-10-06T00:43:58.641Z,15.66
2022-10-06T00:46:34.965Z,15.70
2022-10-06T00:49:11.974Z,15.72
2022-10-06T00:51:46.665Z,15.74
2022-10-06T00:54:18.329Z,15.75
2022-10-06T00:56:49.060Z,15.78
2022-10-06T00:59:21.533Z,15.78
2022-10-06T01:01:58.045Z,15.79
2022-10-06T01:04:31.539Z,15.79
2022-10-06T01:07:03.351Z,15.78
2022-10-06T01:09:34.848Z,15.75
2022-10-06T01:12:05.194Z,15.70
2022-10-06T01:14:38.741Z,15.66
2022-10-06T01:17:14.838Z,15.62
2022-10-06T01:19:51.730Z,15.56
2022-10-06T01:22:29.270Z,15.52
2022-10-06T01:25:00.548Z,15.45
2022-10-06T01:27:34.402Z,15.38
2022-10-06T01:30:06.287Z,15.30
2022-10-06T01:32:39.971Z,15.22
2022-10-06T01:35:13.154Z,15.12
2022-10-06T01:37:43.920Z,15.04
2022-10-06T01:40:14.615Z,14.96
2022-10-06T01:42:45.228Z,14.93
2022-10-06T01:45:15.749Z,14.89
2022-10-06T01:47:46.338Z,14.85
2022-10-06T01:50:17.136Z,14.84
2022-10-06T01:52:47.797Z,14.86
2022-10-06T01:55:19.364Z,14.87
2022-10-06T01:57:53.070Z,14.91
2022-10-06T02:00:25.437Z,14.93
2022-10-06T02:02:56.377Z,14.94
2022-10-06T02:05:26.831Z,14.92
2022-10-06T02:07:58.678Z,14.91
2022-10-06T02:10:29.262Z,14.88
2022-10-06T02:13:01.142Z,14.86
2022-10-06T02:15:33.345Z,14.85
2022-10-06T02:18:04.163Z,14.87
2022-10-06T02:20:34.686Z,14.91
2022-10-06T02:23:05.112Z,14.98
2022-10-06T02:25:35.669Z,15.04
2022-10-06T02:28:17.768Z,15.11
2022-10-06T02:30:48.787Z,15.19
2022-10-06T02:33:21.091Z,15.25
2022-10-06T02:35:56.740Z,15.30
2022-10-06T02:38:28.982Z,15.34
2022-10-06T02:41:03.948Z,15.39
2022-10-06T02:43:35.145Z,15.47
2022-10-06T02:46:08.104Z,15.54
2022-10-06T02:48:39.812Z,15.60
2022-10-06T02:51:15.443Z,15.63
2022-10-06T02:53:48.437Z,15.68
2022-10-06T02:56:21.016Z,15.73
2022-10-06T02:58:53.089Z,15.76
2022-10-06T03:01:35.694Z,15.80
2022-10-06T03:04:12.751Z,15.84
2022-10-06T03:06:44.631Z,15.87
2022-10-06T03:09:21.389Z,15.86
2022-10-06T03:11:52.141Z,15.85
2022-10-06T03:14:33.779Z,15.84
2022-10-06T03:17:04.454Z,15.86
2022-10-06T03:19:35.260Z,15.86
2022-10-06T03:22:10.555Z,15.83
2022-10-06T03:24:48.950Z,15.75
2022-10-06T03:27:19.654Z,15.66
2022-10-06T03:29:51.513Z,15.59
2022-10-06T03:32:24.034Z,15.53
2022-10-06T03:34:54.701Z,15.48
2022-10-06T03:37:25.297Z,15.43
2022-10-06T03:39:55.853Z,15.38
2022-10-06T03:42:27.637Z,15.32
2022-10-06T03:44:58.915Z,15.28
2022-10-06T03:47:32.419Z,15.23
2022-10-06T03:50:04.501Z,15.19
2022-10-06T03:52:35.864Z,15.17
2022-10-06T03:55:11.579Z,15.14
2022-10-06T03:57:46.462Z,15.12
2022-10-06T04:00:18.025Z,15.10
2022-10-06T04:02:50.746Z,15.10
2022-10-06T04:05:21.184Z,15.10
2022-10-06T04:07:51.878Z,15.10
2022-10-06T04:10:22.417Z,15.09
2022-10-06T04:12:53.654Z,15.09
2022-10-06T04:15:26.720Z,15.09
2022-10-06T04:17:59.575Z,15.09
2022-10-06T04:20:30.019Z,15.09
2022-10-06T04:23:00.710Z,15.08
2022-10-06T04:25:31.174Z,15.08
2022-10-06T04:28:02.822Z,15.06
2022-10-06T04:30:33.533Z,15.05
2022-10-06T04:33:07.741Z,15.03
2022-10-06T04:35:38.410Z,15.01
2022-10-06T04:38:09.411Z,14.97
2022-10-06T04:40:39.859Z,14.94
2022-10-06T04:43:11.287Z,14.91
2022-10-06T04:45:40.311Z,14.89
2022-10-06T04:48:10.876Z,14.85
2022-10-06T04:50:41.400Z,14.82
2022-10-06T04:53:14.412Z,14.79
2022-10-06T04:55:45.917Z,14.76
2022-10-06T04:58:16.675Z,14.73
2022-10-06T05:00:49.601Z,14.68
2022-10-06T05:03:20.389Z,14.66
2022-10-06T05:05:51.097Z,14.63
2022-10-06T05:08:21.740Z,14.59
2022-10-06T05:10:59.847Z,14.57
2022-10-06T05:13:31.534Z,14.54
2022-10-06T05:16:03.971Z,14.53
2022-10-06T05:18:39.418Z,14.52
2022-10-06T05:21:16.953Z,14.50
2022-10-06T05:23:48.489Z,14.48
2022-10-06T05:26:21.849Z,14.48
2022-10-06T05:28:52.939Z,14.47
2022-10-06T05:31:26.793Z,14.45
2022-10-06T05:33:58.953Z,14.43
2022-10-06T05:36:33.985Z,14.43
2022-10-06T05:39:05.454Z,14.41
2022-10-06T05:41:44.423Z,14.38
2022-10-06T05:44:17.862Z,14.33
2022-10-06T05:46:53.250Z,14.29
2022-10-06T05:49:24.131Z,14.26
2022-10-06T05:51:59.207Z,14.23
2022-10-06T05:54:32.209Z,14.20
2022-10-06T05:57:03.062Z,14.18
2022-10-06T05:59:35.476Z,14.16
2022-10-06T06:02:07.906Z,14.16
2022-10-06T06:04:44.297Z,14.13
2022-10-06T06:07:15.024Z,14.12
2022-10-06T06:09:47.417Z,14.09
2022-10-06T06:12:17.938Z,14.08
2022-10-06T06:15:15.375Z,14.07
2022-10-06T06:17:51.567Z,14.07
2022-10-06T06:20:22.245Z,14.08
2022-10-06T06:22:55.995Z,14.10
2022-10-06T06:25:30.269Z,14.12
2022-10-06T06:28:01.131Z,14.15
2022-10-06T06:30:32.644Z,14.18
2022-10-06T06:33:03.443Z,14.20
2022-10-06T06:35:34.870Z,14.23
2022-10-06T06:38:11.536Z,14.26
2022-10-06T06:40:44.985Z,14.30
2022-10-06T06:43:16.304Z,14.36
2022-10-06T06:46:07.477Z,14.42
2022-10-06T06:48:56.691Z,14.47
2022-10-06T06:51:27.720Z,14.52
2022-10-06T06:53:59.426Z,14.58
2022-10-06T06:56:35.222Z,14.65
2022-10-06T06:59:11.920Z,14.73
2022-10-06T07:01:47.591Z,14.81
2022-10-06T07:04:21.800Z,14.89
2022-10-06T07:06:58.374Z,14.97
2022-10-06T07:09:34.451Z,15.07
2022-10-06T07:12:08.969Z,15.16
2022-10-06T07:14:59.638Z,15.25
2022-10-06T07:17:49.538Z,15.34
2022-10-06T07:20:38.261Z,15.42
2022-10-06T07:23:27.357Z,15.45
2022-10-06T07:25:58.805Z,15.48
2022-10-06T07:28:30.654Z,15.50
2022-10-06T07:31:04.997Z,15.50
2022-10-06T07:33:37.057Z,15.49
2022-10-06T07:36:09.090Z,15.48
2022-10-06T07:38:41.688Z,15.48
2022-10-06T07:41:19.291Z,15.50
2022-10-06T07:43:53.725Z,15.52
2022-10-06T07:46:25.365Z,15.53
2022-10-06T07:49:07.084Z,15.49
2022-10-06T07:51:37.988Z,15.45
2022-10-06T07:54:09.433Z,15.40
2022-10-06T07:57:03.256Z,15.34
2022-10-06T07:59:34.736Z,15.27
2022-10-06T08:02:05.585Z,15.18
2022-10-06T08:04:36.396Z,15.09
2022-10-06T08:07:10.357Z,15.01
2022-10-06T08:09:41.032Z,14.96
2022-10-06T08:12:25.402Z,14.93
2022-10-06T08:14:56.304Z,14.92
2022-10-06T08:17:25.509Z,14.92
2022-10-06T08:19:56.331Z,14.91
2022-10-06T08:22:29.947Z,14.89
2022-10-06T08:25:06.286Z,14.88
2022-10-06T08:27:38.622Z,14.90
2022-10-06T08:30:11.188Z,14.95
2022-10-06T08:32:43.412Z,15.06
2022-10-06T08:35:14.655Z,15.19
2022-10-06T08:37:43.664Z,15.25
2022-10-06T08:40:16.176Z,15.28
2022-10-06T08:42:51.173Z,15.32
2022-10-06T08:45:25.628Z,15.39
2022-10-06T08:48:02.652Z,15.43
2022-10-06T08:50:41.632Z,15.51
2022-10-06T08:53:17.670Z,15.58
2022-10-06T08:55:54.796Z,15.62
2022-10-06T08:58:47.169Z,15.70
2022-10-06T09:01:23.578Z,15.76
2022-10-06T09:04:01.778Z,15.85
2022-10-06T09:06:46.979Z,16.03
2022-10-06T09:09:28.910Z,16.14
2022-10-06T09:12:12.301Z,16.14
2022-10-06T09:14:49.051Z,16.15
2022-10-06T09:17:27.203Z,16.16
2022-10-06T09:20:03.179Z,16.17
2022-10-06T09:22:36.524Z,16.20
2022-10-06T09:25:20.135Z,16.22
2022-10-06T09:27:54.508Z,16.24
2022-10-06T09:30:25.519Z,16.30
2022-10-06T09:33:00.455Z,16.33
2022-10-06T09:35:38.929Z,16.32
2022-10-06T09:38:12.801Z,16.27
2022-10-06T09:40:51.228Z,16.23
2022-10-06T09:43:27.169Z,16.22
2022-10-06T09:46:18.836Z,16.24
2022-10-06T09:48:49.265Z,16.27
2022-10-06T09:51:20.691Z,16.32
2022-10-06T09:54:08.244Z,16.39
2022-10-06T09:56:43.284Z,16.47
2022-10-06T09:59:22.980Z,16.55
2022-10-06T10:01:59.786Z,16.61
2022-10-06T10:04:33.302Z,16.64
2022-10-06T10:07:25.481Z,16.69
2022-10-06T10:10:16.611Z,16.69
2022-10-06T10:12:53.734Z,16.64
2022-10-06T10:15:32.982Z,16.64
2022-10-06T10:18:05.849Z,16.68
2022-10-06T10:20:39.938Z,16.70
2022-10-06T10:23:31.699Z,16.74
2022-10-06T10:26:20.110Z,16.79
2022-10-06T10:29:33.158Z,16.84
2022-10-06T10:32:12.005Z,16.90
2022-10-06T10:35:07.526Z,16.97
2022-10-06T10:37:43.490Z,17.05
2022-10-06T10:40:25.138Z,17.11
2022-10-06T10:43:03.758Z,17.23
2022-10-06T10:45:38.644Z,17.32
2022-10-06T10:48:15.915Z,17.40
2022-10-06T10:50:56.697Z,17.46
2022-10-06T10:53:42.710Z,17.48
2022-10-06T10:56:16.270Z,17.55
2022-10-06T10:58:49.246Z,17.57
2022-10-06T11:01:30.558Z,17.54
2022-10-06T11:04:00.884Z,17.50
2022-10-06T11:07:00.547Z,17.52
2022-10-06T11:09:42.206Z,17.57
2022-10-06T11:12:24.738Z,17.62
2022-10-06T11:15:01.677Z,17.67
2022-10-06T11:17:50.335Z,17.73
2022-10-06T11:20:46.012Z,17.81
2022-10-06T11:23:32.645Z,17.90
2022-10-06T11:26:12.342Z,18.04
2022-10-06T11:28:49.806Z,18.17
2022-10-06T11:31:34.141Z,18.29
2022-10-06T11:34:06.421Z,18.33
2022-10-06T11:36:49.837Z,18.39
2022-10-06T11:39:31.781Z,18.44
2022-10-06T11:42:11.471Z,18.63
2022-10-06T11:44:45.784Z,18.82
2022-10-06T11:47:35.156Z,19.03
2022-10-06T11:50:34.649Z,19.29
2022-10-06T11:53:06.555Z,19.58
2022-10-06T11:55:37.099Z,19.82
2022-10-06T11:58:41.289Z,20.11
2022-10-06T12:01:07.242Z,20.37
2022-10-06T12:04:14.682Z,20.52
2022-10-06T12:07:02.476Z,20.91
2022-10-06T12:09:52.073Z,21.27
2022-10-06T12:13:05.351Z,21.48
2022-10-06T12:19:05.986Z,21.73
2022-10-06T12:21:45.592Z,21.73
2022-10-06T12:24:27.569Z,21.80
2022-10-06T12:27:16.432Z,22.04
2022-10-06T12:29:53.430Z,22.34
2022-10-06T12:32:43.138Z,22.51
2022-10-06T12:35:24.979Z,22.79
2022-10-06T12:37:58.383Z,23.01
2022-10-06T12:40:47.819Z,23.19
2022-10-06T12:43:43.866Z,23.39
2022-10-06T12:46:26.734Z,23.49
2022-10-06T12:49:32.045Z,23.64
2022-10-06T12:52:10.231Z,23.78
2022-10-06T12:54:49.218Z,23.82
2022-10-06T12:57:21.758Z,23.92
2022-10-06T12:59:52.104Z,23.82
2022-10-06T13:02:24.856Z,23.65
2022-10-06T13:04:58.852Z,23.57
2022-10-06T13:07:32.268Z,23.71
2022-10-06T13:10:21.051Z,23.72
2022-10-06T13:12:52.671Z,23.83
2022-10-06T13:15:27.742Z,23.98
2022-10-06T13:18:04.680Z,24.08
2022-10-06T13:20:41.628Z,24.04
2022-10-06T13:23:28.209Z,24.08
2022-10-06T13:26:00.648Z,24.13
2022-10-06T13:28:49.606Z,24.22
2022-10-06T13:31:27.010Z,24.32
2022-10-06T13:34:00.994Z,24.27
2022-10-06T13:36:33.841Z,24.32
2022-10-06T13:39:06.302Z,24.46
2022-10-06T13:41:39.266Z,24.60
2022-10-06T13:44:28.401Z,24.59
2022-10-06T13:47:02.276Z,24.58
2022-10-06T13:49:37.275Z,24.54
2022-10-06T13:52:16.798Z,24.55
2022-10-06T13:54:51.932Z,24.56
2022-10-06T13:57:44.203Z,24.54
2022-10-06T14:00:25.906Z,24.56
2022-10-06T14:03:09.409Z,24.31
2022-10-06T14:05:41.779Z,24.08
2022-10-06T14:08:24.703Z,23.99
2022-10-06T14:10:58.617Z,23.75
2022-10-06T14:13:32.298Z,23.57
2022-10-06T14:16:06.499Z,23.57
2022-10-06T14:18:41.140Z,23.57
2022-10-06T14:21:30.111Z,23.49
2022-10-06T14:24:51.438Z,23.71
2022-10-06T14:27:21.775Z,23.74
2022-10-06T14:29:53.107Z,23.94
2022-10-06T14:32:23.614Z,24.15
2022-10-06T14:34:54.330Z,24.34
2022-10-06T14:37:24.601Z,24.42
2022-10-06T14:39:56.147Z,24.47
2022-10-06T14:42:27.109Z,24.52
2022-10-06T14:44:59.240Z,24.58
2022-10-06T14:47:31.625Z,24.73
2022-10-06T14:50:02.129Z,24.73
2022-10-06T14:52:32.599Z,24.61
2022-10-06T14:55:03.074Z,24.59
2022-10-06T14:57:33.649Z,24.67
2022-10-06T15:00:05.500Z,24.85
2022-10-06T15:02:36.255Z,24.98
2022-10-06T15:05:07.514Z,25.02
2022-10-06T15:07:55.439Z,24.84
2022-10-06T15:10:25.849Z,24.77
2022-10-06T15:12:56.994Z,24.74
2022-10-06T15:15:27.549Z,24.72
2022-10-06T15:17:58.070Z,24.63
2022-10-06T15:20:29.242Z,24.60
2022-10-06T15:23:00.274Z,24.62
2022-10-06T15:25:48.212Z,24.56
2022-10-06T15:28:36.198Z,24.42
2022-10-06T15:31:06.917Z,24.30
2022-10-06T15:33:37.333Z,24.20
2022-10-06T15:36:18.744Z,24.06
2022-10-06T15:38:49.551Z,23.79
2022-10-06T15:41:19.148Z,23.56
2022-10-06T15:43:57.410Z,23.23
2022-10-06T15:46:39.387Z,22.87
2022-10-06T15:49:12.114Z,22.23
2022-10-06T15:51:47.434Z,21.64
2022-10-06T15:54:20.259Z,21.05
2022-10-06T15:56:52.281Z,20.49
2022-10-06T15:59:24.931Z,20.02
2022-10-06T16:01:57.873Z,19.55
2022-10-06T16:04:35.395Z,19.12
2022-10-06T16:07:07.398Z,18.73
2022-10-06T16:09:43.435Z,18.38
2022-10-06T16:12:17.300Z,18.02
2022-10-06T16:14:48.335Z,17.67
2022-10-06T16:17:22.379Z,17.36
2022-10-06T16:19:52.917Z,17.07
2022-10-06T16:22:23.509Z,16.76
2022-10-06T16:24:54.544Z,16.41
2022-10-06T16:27:25.007Z,16.11
2022-10-06T16:29:55.829Z,15.83
2022-10-06T16:32:26.491Z,15.56
2022-10-06T16:34:56.953Z,15.31
2022-10-06T16:37:27.339Z,15.10
2022-10-06T16:39:57.718Z,14.88
2022-10-06T16:42:28.173Z,14.70
2022-10-06T16:44:58.772Z,14.52
2022-10-06T16:47:29.203Z,14.34
2022-10-06T16:49:59.568Z,14.15
2022-10-06T16:52:29.918Z,13.97
2022-10-06T16:55:01.741Z,13.82
2022-10-06T16:57:32.108Z,13.66
2022-10-06T17:00:05.835Z,13.52
2022-10-06T17:02:36.897Z,13.38
2022-10-06T17:05:08.402Z,13.24
2022-10-06T17:07:39.005Z,13.12
2022-10-06T17:10:25.835Z,13.00
2022-10-06T17:12:56.372Z,12.87
2022-10-06T17:15:30.109Z,12.76
2022-10-06T17:18:03.805Z,12.66
2022-10-06T17:20:34.166Z,12.57
2022-10-06T17:23:04.552Z,12.48
2022-10-06T17:25:35.232Z,12.39
2022-10-06T17:28:07.019Z,12.30
2022-10-06T17:30:37.430Z,12.22
2022-10-06T17:33:07.923Z,12.15
2022-10-06T17:35:40.689Z,12.09
2022-10-06T17:38:11.060Z,12.00
2022-10-06T17:40:46.290Z,11.93
2022-10-06T17:43:17.020Z,11.86
2022-10-06T17:45:47.772Z,11.80
2022-10-06T17:48:18.179Z,11.74
2022-10-06T17:50:59.586Z,11.70
2022-10-06T17:53:29.985Z,11.65
2022-10-06T17:56:06.295Z,11.61
2022-10-06T17:58:37.057Z,11.55
2022-10-06T18:01:17.665Z,11.51
2022-10-06T18:03:48.568Z,11.46
2022-10-06T18:06:20.115Z,11.40
2022-10-06T18:08:51.162Z,11.35
2022-10-06T18:11:38.424Z,11.29
2022-10-06T18:14:11.616Z,11.24
2022-10-06T18:16:45.279Z,11.19
2022-10-06T18:19:17.867Z,11.13
2022-10-06T18:21:49.673Z,11.07
2022-10-06T18:24:21.869Z,11.03
2022-10-06T18:26:54.181Z,10.98
2022-10-06T18:29:28.069Z,10.92
2022-10-06T18:32:15.086Z,10.87
2022-10-06T18:37:40.511Z,10.75
2022-10-06T18:40:14.814Z,10.70
2022-10-06T18:42:45.301Z,10.64
2022-10-06T18:45:39.154Z,10.57
2022-10-06T18:48:28.101Z,10.51
2022-10-06T18:51:05.018Z,10.41
2022-10-06T18:53:39.067Z,10.34
2022-10-06T18:56:10.750Z,10.27
2022-10-06T18:58:42.634Z,10.20
2022-10-06T19:01:16.674Z,10.17
2022-10-06T19:03:47.332Z,10.15
2022-10-06T19:06:17.859Z,10.15
2022-10-06T19:08:51.578Z,10.13
2022-10-06T19:11:39.469Z,10.11
2022-10-06T19:14:10.494Z,10.06
2022-10-06T19:16:41.300Z,10.01
2022-10-06T19:19:14.078Z,9.95
2022-10-06T19:21:46.474Z,9.90
2022-10-06T19:24:19.775Z,9.85
2022-10-06T19:26:52.457Z,9.81
2022-10-06T19:29:24.083Z,9.78
2022-10-06T19:31:57.478Z,9.75
2022-10-06T19:34:28.651Z,9.71
2022-10-06T19:36:59.463Z,9.66
2022-10-06T19:39:32.610Z,9.62
2022-10-06T19:42:20.930Z,9.58
2022-10-06T19:44:51.535Z,9.55
2022-10-06T19:47:22.210Z,9.51
2022-10-06T19:49:53.286Z,9.49
2022-10-06T19:52:25.615Z,9.46
2022-10-06T19:54:56.189Z,9.44
2022-10-06T19:57:28.780Z,9.43
2022-10-06T19:59:59.243Z,9.44
2022-10-06T20:02:29.766Z,9.42
2022-10-06T20:05:00.275Z,9.38
2022-10-06T20:07:30.625Z,9.36
2022-10-06T20:10:01.147Z,9.34
2022-10-06T20:12:33.628Z,9.30
2022-10-06T20:15:04.194Z,9.26
2022-10-06T20:17:34.806Z,9.21
2022-10-06T20:20:05.732Z,9.17
2022-10-06T20:22:36.667Z,9.15
2022-10-06T20:25:07.826Z,9.13
2022-10-06T20:27:38.366Z,9.11
2022-10-06T20:30:10.970Z,9.12
2022-10-06T20:32:41.684Z,9.12
2022-10-06T20:35:13.228Z,9.13
2022-10-06T20:37:43.832Z,9.13
2022-10-06T20:40:32.584Z,9.10
2022-10-06T20:43:03.060Z,9.06
2022-10-06T20:45:33.717Z,9.04
2022-10-06T20:48:04.172Z,9.05
2022-10-06T20:50:34.703Z,9.06
2022-10-06T20:53:05.270Z,9.05
2022-10-06T20:55:35.701Z,9.01
2022-10-06T20:58:06.213Z,8.97
2022-10-06T21:00:36.780Z,8.93
2022-10-06T21:03:08.794Z,8.88
2022-10-06T21:05:40.397Z,8.84
2022-10-06T21:08:11.875Z,8.81
2022-10-06T21:10:42.414Z,8.75
2022-10-06T21:13:12.744Z,8.70
2022-10-06T21:15:46.871Z,8.65
2022-10-06T21:18:17.374Z,8.61
2022-10-06T21:20:57.597Z,8.60
2022-10-06T21:23:28.915Z,8.59
2022-10-06T21:26:01.804Z,8.58
2022-10-06T21:28:32.306Z,8.56
2022-10-06T21:31:06.069Z,8.50
2022-10-06T21:33:41.456Z,8.45
2022-10-06T21:36:14.786Z,8.41
2022-10-06T21:38:47.332Z,8.37
2022-10-06T21:41:31.802Z,8.34
2022-10-06T21:44:04.036Z,8.32
2022-10-06T21:46:36.115Z,8.29
2022-10-06T21:49:10.036Z,8.27
2022-10-06T21:51:41.237Z,8.25
2022-10-06T21:54:12.585Z,8.22
2022-10-06T21:56:43.589Z,8.17
2022-10-06T21:59:14.345Z,8.13
2022-10-06T22:01:46.728Z,8.09
2022-10-06T22:04:17.845Z,8.08
2022-10-06T22:06:50.123Z,8.06
2022-10-06T22:09:21.594Z,8.06
2022-10-06T22:11:52.301Z,8.05
2022-10-06T22:14:22.789Z,8.05
2022-10-06T22:16:53.202Z,8.02
2022-10-06T22:19:23.645Z,8.01
2022-10-06T22:21:55.082Z,7.99
2022-10-06T22:24:24.069Z,7.99
2022-10-06T22:26:54.533Z,7.99
2022-10-06T22:29:24.884Z,8.00
2022-10-06T22:31:56.114Z,8.00
2022-10-06T22:34:27.160Z,7.99
2022-10-06T22:36:57.729Z,7.97
2022-10-06T22:39:28.134Z,7.94
2022-10-06T22:41:58.514Z,7.91
2022-10-06T22:44:29.149Z,7.90
2022-10-06T22:46:59.615Z,7.91
2022-10-06T22:49:30.190Z,7.91
2022-10-06T22:52:00.576Z,7.91
2022-10-06T22:54:32.290Z,7.92
2022-10-06T22:57:05.020Z,7.92
2022-10-06T22:59:35.415Z,7.90
2022-10-06T23:02:05.729Z,7.89
2022-10-06T23:04:36.198Z,7.87
2022-10-06T23:07:06.542Z,7.86
2022-10-06T23:09:38.200Z,7.83
2022-10-06T23:12:08.828Z,7.81
2022-10-06T23:14:39.340Z,7.79
2022-10-06T23:17:09.732Z,7.77
2022-10-06T23:19:40.173Z,7.74
2022-10-06T23:22:10.534Z,7.71
2022-10-06T23:24:40.986Z,7.70
2022-10-06T23:27:11.366Z,7.68
2022-10-06T23:29:41.897Z,7.66
2022-10-06T23:32:12.353Z,7.64
2022-10-06T23:34:43.122Z,7.61
2022-10-06T23:37:13.660Z,7.57
2022-10-06T23:39:44.679Z,7.54
2022-10-06T23:42:15.281Z,7.52
2022-10-06T23:44:45.725Z,7.50
2022-10-06T23:47:16.143Z,7.50
2022-10-06T23:49:46.628Z,7.53
2022-10-06T23:52:17.097Z,7.56
2022-10-06T23:54:47.791Z,7.60
2022-10-06T23:57:18.158Z,7.64
2022-10-06T23:59:48.532Z,7.69
